Time;durP1;ratioP1;P1;durP2;ratioP2;P2;SDS_P1;SDS_P2;PMS_P1;PMS_P2;Temp;Humidity;BMP_temperature;BMP_pressure;BME280_temperature;BME280_humidity;BME280_pressure;Samples;Min_cycle;Max_cycle;Signal;HPM_P1;HPM_P2
2022/08/19 00:00:20;;;;;;;;;14.00;14.00;;;;;21.83;56.99;100856.78;5061211;28;46785;-83
2022/08/19 00:02:47;;;;;;;;;14.75;13.50;;;;;21.81;56.52;100862.28;5073304;28;46075;-80
2022/08/19 00:05:14;;;;;;;;;15.00;14.50;;;;;21.76;56.79;100852.16;5072426;28;45638;-80
2022/08/19 00:07:50;;;;;;;;;14.50;14.00;;;;;21.77;56.90;100860.97;5074128;28;45803;-84
2022/08/19 00:10:16;;;;;;;;;17.50;17.50;;;;;21.75;57.01;100855.00;5073008;28;45686;-81
2022/08/19 00:15:11;;;;;;;;;14.33;13.67;;;;;21.57;56.92;100833.94;5601269;22;72013;-83
2022/08/19 00:17:41;;;;;;;;;13.50;12.75;;;;;21.69;57.24;100845.88;5050542;28;46048;-77
2022/08/19 00:20:16;;;;;;;;;12.25;12.25;;;;;21.71;56.85;100859.00;5056211;28;47555;-83
2022/08/19 00:22:42;;;;;;;;;14.50;14.50;;;;;21.69;57.17;100853.88;5055754;28;46116;-83
2022/08/19 00:25:08;;;;;;;;;17.75;16.50;;;;;21.68;57.21;100854.88;5077565;28;45782;-82
2022/08/19 00:27:34;;;;;;;;;12.00;11.75;;;;;21.64;57.29;100858.91;5075925;28;45776;-78
2022/08/19 00:30:03;;;;;;;;;15.25;12.75;;;;;21.64;56.96;100861.56;5079152;28;46414;-84
2022/08/19 00:32:29;;;;;;;;;13.75;11.25;;;;;21.65;57.25;100857.88;5080143;28;46561;-81
2022/08/19 00:34:54;;;;;;;;;14.75;12.50;;;;;21.63;56.89;100861.75;5053797;28;45849;-81
2022/08/19 00:37:22;;;;;;;;;11.25;11.25;;;;;21.58;56.80;100866.75;5073154;28;45717;-80
2022/08/19 00:40:30;;;;;;;;;;;;;;;;;;;;;
2022/08/19 00:42:56;;;;;;;;;14.00;13.25;;;;;21.39;57.33;100868.00;5067034;28;73175;-82
2022/08/19 00:45:26;;;;;;;;;14.00;13.75;;;;;21.37;57.58;100862.03;5073655;28;45626;-79
2022/08/19 00:47:52;;;;;;;;;17.00;13.00;;;;;21.34;57.40;100852.53;5073690;27;45633;-80
2022/08/19 00:50:20;;;;;;;;;10.75;10.00;;;;;21.33;57.77;100858.84;5069005;28;46875;-81
2022/08/19 00:52:52;;;;;;;;;12.50;11.75;;;;;21.34;57.99;100863.19;5058629;28;46666;-81
2022/08/19 00:55:22;;;;;;;;;12.25;11.00;;;;;21.29;57.96;100856.72;5055820;28;45735;-81
2022/08/19 00:57:59;;;;;;;;;15.50;12.75;;;;;21.26;57.52;100860.56;5074035;28;45595;-83
2022/08/19 01:00:26;;;;;;;;;14.25;14.00;;;;;21.27;58.01;100862.19;5072618;28;46837;-77
2022/08/19 01:02:53;;;;;;;;;14.75;14.75;;;;;21.25;57.98;100852.72;5068453;28;47155;-80
2022/08/19 01:05:24;;;;;;;;;13.25;13.00;;;;;21.24;58.11;100862.56;5068754;28;45726;-82
2022/08/19 01:07:50;;;;;;;;;16.00;15.25;;;;;21.21;58.18;100843.44;5045752;28;45785;-82
2022/08/19 01:10:24;;;;;;;;;14.50;13.50;;;;;21.25;58.06;100858.06;5069623;28;46681;-81
2022/08/19 01:13:05;;;;;;;;;14.75;12.75;;;;;21.24;58.11;100856.41;5073432;28;46402;-83
2022/08/19 01:15:35;;;;;;;;;15.50;14.25;;;;;21.14;58.27;100848.59;5071174;28;45862;-80
2022/08/19 01:18:44;;;;;;;;;16.25;14.75;;;;;21.17;57.87;100845.59;5073879;28;45731;-80
2022/08/19 01:21:50;;;;;;;;;15.00;14.25;;;;;21.08;58.21;100843.09;5071453;28;47265;-82
2022/08/19 01:25:05;;;;;;;;;11.00;10.25;;;;;20.94;58.36;100820.66;5026472;28;46684;-83
2022/08/19 01:27:43;;;;;;;;;14.50;13.50;;;;;21.09;58.71;100850.91;4922869;28;45842;-81
2022/08/19 01:33:41;;;;;;;;;13.75;13.00;;;;;21.05;58.65;100849.59;4892787;29;46877;-78
2022/08/19 01:36:10;;;;;;;;;14.25;13.00;;;;;21.06;58.51;100853.06;4880256;28;46286;-77
2022/08/19 01:38:42;;;;;;;;;16.00;14.25;;;;;21.09;58.36;100860.75;4893222;29;45765;-78
2022/08/19 01:41:08;;;;;;;;;11.75;11.50;;;;;21.07;58.53;100863.56;4873599;29;45842;-81
2022/08/19 01:43:34;;;;;;;;;14.75;13.25;;;;;21.05;58.47;100860.25;4885856;28;45695;-77
2022/08/19 01:46:00;;;;;;;;;15.50;15.50;;;;;21.03;58.79;100856.94;4880150;29;48191;-79
2022/08/19 01:48:26;;;;;;;;;9.25;9.25;;;;;21.01;58.75;100866.06;4896143;29;45754;-81
2022/08/19 01:50:52;;;;;;;;;17.00;16.00;;;;;20.97;58.33;100865.59;4879798;29;45975;-81
2022/08/19 01:53:17;;;;;;;;;13.25;12.75;;;;;20.94;58.67;100865.94;4896064;28;47448;-81
2022/08/19 01:55:43;;;;;;;;;13.25;12.00;;;;;20.95;58.47;100867.59;4908308;28;46177;-82
2022/08/19 01:58:22;;;;;;;;;14.75;12.25;;;;;20.95;58.82;100868.44;4883123;28;45767;-79
2022/08/19 02:00:48;;;;;;;;;15.00;13.50;;;;;20.94;58.91;100872.09;4914577;28;45880;-81
2022/08/19 02:03:14;;;;;;;;;14.00;13.00;;;;;20.94;58.76;100864.09;4919875;28;46786;-81
2022/08/19 02:05:40;;;;;;;;;15.50;14.25;;;;;20.94;59.04;100865.94;4953276;28;46104;-77
2022/08/19 02:08:07;;;;;;;;;14.00;13.50;;;;;20.88;58.45;100867.47;4963358;28;46135;-81
2022/08/19 02:10:32;;;;;;;;;17.00;14.50;;;;;20.79;58.89;100859.63;5043917;28;45728;-79
2022/08/19 02:12:58;;;;;;;;;16.25;14.00;;;;;20.79;59.27;100865.78;5053243;28;47369;-81
2022/08/19 02:15:24;;;;;;;;;13.50;13.50;;;;;20.80;59.43;100867.47;5051568;28;47029;-80
2022/08/19 02:17:49;;;;;;;;;13.00;12.25;;;;;20.76;58.94;100866.13;5067714;28;45799;-81
2022/08/19 02:20:16;;;;;;;;;14.25;13.75;;;;;20.77;59.48;100869.63;5074387;28;45723;-78
2022/08/19 02:22:42;;;;;;;;;13.50;12.50;;;;;20.75;59.55;100859.16;5056677;28;47223;-80
2022/08/19 02:25:10;;;;;;;;;15.50;12.50;;;;;20.73;59.40;100863.00;5073973;28;47266;-81
2022/08/19 02:27:36;;;;;;;;;16.00;15.25;;;;;20.72;59.79;100859.50;5075551;28;45692;-82
2022/08/19 02:30:03;;;;;;;;;15.00;13.00;;;;;20.69;59.73;100862.47;5056453;28;45943;-79
2022/08/19 02:32:30;;;;;;;;;17.25;13.75;;;;;20.61;59.81;100878.47;5050504;28;48885;-79
2022/08/19 02:34:55;;;;;;;;;15.75;14.50;;;;;20.56;60.11;100879.97;5067075;28;46371;-82
2022/08/19 02:40:05;;;;;;;;;11.25;10.25;;;;;20.46;60.72;100877.44;5048217;28;45700;-80
2022/08/19 02:42:32;;;;;;;;;15.50;14.75;;;;;20.43;60.51;100875.97;5056745;28;46529;-80
2022/08/19 02:44:57;;;;;;;;;15.75;14.00;;;;;20.43;61.10;100877.78;5077921;28;47399;-79
2022/08/19 02:47:22;;;;;;;;;14.75;14.75;;;;;20.42;60.91;100871.63;5085999;27;45623;-83
2022/08/19 02:49:49;;;;;;;;;13.75;12.50;;;;;20.42;60.97;100873.47;5073358;28;45528;-80
2022/08/19 02:52:14;;;;;;;;;14.50;14.00;;;;;20.41;61.05;100869.97;5078124;28;45639;-77
2022/08/19 02:54:40;;;;;;;;;14.75;12.75;;;;;20.45;61.23;100881.13;5080101;28;45695;-80
2022/08/19 02:57:06;;;;;;;;;14.00;12.25;;;;;20.47;61.08;100873.81;5080302;28;46300;-80
2022/08/19 02:59:32;;;;;;;;;15.50;14.00;;;;;20.49;61.48;100863.81;5075207;28;45731;-80
2022/08/19 03:01:58;;;;;;;;;16.00;15.50;;;;;20.51;61.60;100869.84;5074931;28;45735;-79
2022/08/19 03:04:24;;;;;;;;;16.50;14.50;;;;;20.52;61.44;100868.81;5075736;28;45647;-83
2022/08/19 03:06:49;;;;;;;;;15.50;14.75;;;;;20.52;61.59;100869.63;5056623;28;45990;-80
2022/08/19 03:09:17;;;;;;;;;13.75;12.75;;;;;20.51;61.59;100883.94;5074704;28;46009;-81
2022/08/19 03:11:42;;;;;;;;;15.00;13.25;;;;;20.50;61.69;100882.31;5056139;28;45901;-81
2022/08/19 03:14:09;;;;;;;;;14.00;12.75;;;;;20.50;61.90;100884.97;5074109;28;46276;-79
2022/08/19 03:16:42;;;;;;;;;14.25;12.75;;;;;20.49;62.22;100877.97;5074231;28;45770;-80
2022/08/19 03:19:07;;;;;;;;;13.50;11.75;;;;;20.47;62.52;100879.13;5074402;28;45826;-75
2022/08/19 03:21:34;;;;;;;;;14.75;13.75;;;;;20.45;62.31;100870.50;5073874;28;46450;-81
2022/08/19 03:24:03;;;;;;;;;12.00;11.75;;;;;20.45;62.69;100873.16;5073565;28;47148;-79
2022/08/19 03:26:29;;;;;;;;;13.25;12.25;;;;;20.43;62.91;100869.81;5073326;28;45568;-80
2022/08/19 03:28:55;;;;;;;;;12.25;11.75;;;;;20.48;62.56;100875.47;5074133;28;45958;-82
2022/08/19 03:31:23;;;;;;;;;13.00;12.50;;;;;20.51;62.43;100865.31;5073580;28;46454;-81
2022/08/19 03:33:49;;;;;;;;;16.25;14.00;;;;;20.54;62.41;100866.81;5067246;28;47187;-82
2022/08/19 03:36:23;;;;;;;;;11.00;11.00;;;;;20.53;62.63;100871.31;5041912;28;46418;-76
2022/08/19 03:38:54;;;;;;;;;9.75;9.25;;;;;20.50;62.38;100882.31;5074042;28;45711;-80
2022/08/19 03:41:23;;;;;;;;;10.00;10.00;;;;;20.48;62.43;100856.84;5054302;28;48566;-81
2022/08/19 03:43:49;;;;;;;;;13.00;11.50;;;;;20.49;62.50;100870.00;5075683;28;45743;-79
2022/08/19 03:46:20;;;;;;;;;15.00;13.00;;;;;20.48;62.16;100873.63;5080070;28;45494;-77
2022/08/19 03:48:47;;;;;;;;;16.00;13.00;;;;;20.43;62.29;100864.50;5081205;28;45736;-74
2022/08/19 03:51:21;;;;;;;;;17.50;15.00;;;;;20.42;62.51;100868.16;5082769;28;45802;-75
2022/08/19 03:53:47;;;;;;;;;13.75;13.75;;;;;20.40;62.58;100867.50;5078557;28;46519;-74
2022/08/19 03:56:13;;;;;;;;;17.00;14.75;;;;;20.39;62.80;100868.50;5073723;28;45682;-78
2022/08/19 03:58:39;;;;;;;;;13.00;13.00;;;;;20.38;62.58;100872.16;5073265;28;45872;-77
2022/08/19 04:01:08;;;;;;;;;13.50;12.00;;;;;20.35;62.98;100864.50;5073550;28;45657;-79
2022/08/19 04:03:35;;;;;;;;;13.00;11.00;;;;;20.36;62.89;100868.81;5073528;28;46250;-76
2022/08/19 04:06:13;;;;;;;;;15.00;11.50;;;;;20.35;63.01;100867.97;5072702;28;45652;-81
2022/08/19 04:08:44;;;;;;;;;11.50;10.75;;;;;20.36;62.71;100868.81;5073186;28;46001;-81
2022/08/19 04:11:13;;;;;;;;;11.25;10.75;;;;;20.36;62.89;100871.47;5054662;28;47765;-78
2022/08/19 04:13:38;;;;;;;;;10.25;10.00;;;;;20.35;63.05;100862.66;5071347;28;48962;-82
2022/08/19 04:16:05;;;;;;;;;8.75;8.50;;;;;20.37;62.68;100863.31;5064807;28;46100;-77
2022/08/19 04:18:32;;;;;;;;;10.75;10.75;;;;;20.35;62.76;100856.53;5073314;28;45909;-80
2022/08/19 04:20:58;;;;;;;;;7.75;7.50;;;;;20.36;62.55;100851.00;5071334;28;48355;-81
2022/08/19 04:23:24;;;;;;;;;11.75;11.25;;;;;20.37;62.88;100860.66;5073115;28;45847;-82
2022/08/19 04:25:49;;;;;;;;;8.75;8.75;;;;;20.41;62.70;100866.47;5054369;28;45873;-81
2022/08/19 04:28:15;;;;;;;;;9.25;7.25;;;;;20.40;63.05;100872.81;5054750;28;45747;-79
2022/08/19 04:30:43;;;;;;;;;8.00;7.50;;;;;20.40;62.79;100872.81;5072567;28;45736;-79
2022/08/19 04:33:11;;;;;;;;;10.00;9.00;;;;;20.43;62.55;100872.47;5054527;28;47108;-80
2022/08/19 04:35:38;;;;;;;;;8.50;7.25;;;;;20.43;62.54;100864.50;5074208;28;45743;-78
2022/08/19 04:38:04;;;;;;;;;8.25;7.25;;;;;20.42;62.41;100871.63;5074305;28;46016;-79
2022/08/19 04:43:15;;;;;;;;;8.75;8.00;;;;;20.42;62.68;100866.31;5073185;28;45762;-82
2022/08/19 04:45:43;;;;;;;;;7.50;7.50;;;;;20.40;62.50;100873.66;5072374;28;45664;-83
2022/08/19 04:48:08;;;;;;;;;5.50;5.25;;;;;20.43;63.17;100877.78;5073520;27;45744;-83
2022/08/19 04:50:33;;;;;;;;;8.00;6.75;;;;;20.44;62.71;100887.44;5067487;28;45685;-78
2022/08/19 04:52:59;;;;;;;;;5.25;5.25;;;;;20.41;62.76;100871.81;5067817;28;46954;-79
2022/08/19 04:55:27;;;;;;;;;8.75;7.00;;;;;20.47;62.74;100890.59;5067058;28;45644;-83
2022/08/19 04:57:54;;;;;;;;;6.00;6.00;;;;;20.50;62.35;100898.28;5055603;28;45802;-78
2022/08/19 05:00:19;;;;;;;;;7.00;6.25;;;;;20.49;62.74;100893.94;5078124;28;46815;-80
2022/08/19 05:02:44;;;;;;;;;5.50;5.25;;;;;20.47;62.71;100895.09;5061296;28;47979;-78
2022/08/19 05:05:10;;;;;;;;;7.00;6.00;;;;;20.45;62.96;100897.94;5079129;28;45584;-82
2022/08/19 05:07:36;;;;;;;;;6.25;5.50;;;;;20.41;63.01;100895.75;5062218;28;45796;-81
2022/08/19 05:10:04;;;;;;;;;5.25;5.25;;;;;20.49;62.75;100903.75;5079495;28;47561;-81
2022/08/19 05:12:30;;;;;;;;;5.50;5.50;;;;;20.50;62.57;100894.78;5077251;28;46807;-83
2022/08/19 05:14:57;;;;;;;;;6.50;5.75;;;;;20.51;62.75;100904.44;5071918;28;45642;-78
2022/08/19 05:17:22;;;;;;;;;6.50;6.00;;;;;20.50;62.56;100900.94;5072534;28;45589;-78
2022/08/19 05:22:32;;;;;;;;;7.25;6.50;;;;;20.49;62.57;100899.28;5051653;28;45610;-79
2022/08/19 05:24:58;;;;;;;;;7.75;7.25;;;;;20.49;62.62;100901.94;5070707;28;45774;-77
2022/08/19 05:27:24;;;;;;;;;6.75;6.75;;;;;20.45;62.51;100907.75;5073189;28;45752;-78
2022/08/19 05:29:49;;;;;;;;;7.00;6.00;;;;;20.44;62.71;100911.41;5054194;28;47844;-79
2022/08/19 05:32:14;;;;;;;;;8.25;5.50;;;;;20.42;62.50;100919.56;5070471;28;45928;-79
2022/08/19 05:34:40;;;;;;;;;7.00;7.00;;;;;20.41;62.69;100917.03;5067365;28;45757;-78
2022/08/19 05:37:07;;;;;;;;;6.00;6.00;;;;;20.40;62.82;100910.91;5045250;28;45721;-78
2022/08/19 05:39:35;;;;;;;;;6.50;6.50;;;;;20.39;62.96;100914.56;5069678;28;47382;-81
2022/08/19 05:42:06;;;;;;;;;8.75;8.00;;;;;20.41;63.12;100917.03;5053858;28;47498;-78
2022/08/19 05:44:36;;;;;;;;;6.25;6.00;;;;;20.42;63.27;100916.88;5071784;28;46098;-78
2022/08/19 05:47:05;;;;;;;;;5.50;5.00;;;;;20.42;63.17;100911.56;5038337;27;45746;-78
2022/08/19 05:49:33;;;;;;;;;7.00;6.00;;;;;20.42;63.25;100902.75;5071648;27;45727;-82
2022/08/19 05:52:02;;;;;;;;;5.75;5.50;;;;;20.49;63.37;100909.09;5071950;28;45929;-80
2022/08/19 05:54:27;;;;;;;;;4.75;4.50;;;;;20.50;63.33;100903.59;5058902;28;45743;-82
2022/08/19 05:56:53;;;;;;;;;4.75;4.50;;;;;20.55;63.17;100916.41;5063091;28;45775;-82
2022/08/19 05:59:21;;;;;;;;;4.75;4.50;;;;;20.59;63.49;100922.22;5073481;28;45826;-81
2022/08/19 06:01:51;;;;;;;;;5.00;4.00;;;;;20.57;63.59;100917.06;5089232;28;45338;-76
2022/08/19 06:04:19;;;;;;;;;3.00;3.00;;;;;20.55;64.08;100927.06;5071304;28;45710;-77
2022/08/19 06:06:46;;;;;;;;;3.50;3.50;;;;;20.50;64.19;100935.56;5085516;28;45757;-76
2022/08/19 06:09:12;;;;;;;;;3.00;3.00;;;;;20.49;63.85;100949.00;5079645;28;45755;-77
2022/08/19 06:11:44;;;;;;;;;4.25;3.50;;;;;20.44;64.35;100940.69;5073642;28;45924;-77
2022/08/19 06:14:13;;;;;;;;;2.75;2.75;;;;;20.35;64.53;100931.03;5069252;28;45800;-78
2022/08/19 06:16:41;;;;;;;;;3.00;2.50;;;;;20.33;65.15;100919.72;5071962;28;45751;-76
2022/08/19 06:19:14;;;;;;;;;3.25;3.25;;;;;20.32;64.96;100926.88;5071954;28;45750;-77
2022/08/19 06:21:41;;;;;;;;;3.50;3.25;;;;;20.33;64.65;100941.84;5071603;28;46194;-77
2022/08/19 06:24:10;;;;;;;;;4.00;3.00;;;;;20.30;65.25;100947.44;5071515;28;45710;-77
2022/08/19 06:26:37;;;;;;;;;4.00;4.00;;;;;20.30;65.45;100946.59;5071797;28;45656;-78
2022/08/19 06:29:06;;;;;;;;;3.50;3.25;;;;;20.29;65.18;100945.81;5072345;28;45729;-75
2022/08/19 06:31:33;;;;;;;;;4.00;4.00;;;;;20.28;65.37;100941.47;5048381;28;47302;-78
2022/08/19 06:34:01;;;;;;;;;2.00;1.50;;;;;20.26;65.45;100945.28;5057029;28;45876;-80
2022/08/19 06:36:33;;;;;;;;;2.25;2.25;;;;;20.21;65.28;100947.59;5061110;28;46074;-80
2022/08/19 06:39:03;;;;;;;;;3.00;3.00;;;;;20.21;65.32;100968.88;5075397;28;45841;-80
2022/08/19 06:41:30;;;;;;;;;3.00;3.00;;;;;20.20;65.57;100960.06;5061748;28;45697;-80
2022/08/19 06:43:58;;;;;;;;;3.25;3.25;;;;;20.18;65.76;100962.06;5075193;28;45760;-79
2022/08/19 06:46:23;;;;;;;;;3.00;2.75;;;;;20.16;66.08;100963.22;5073401;28;45796;-78
2022/08/19 06:48:53;;;;;;;;;3.25;3.00;;;;;20.15;65.78;100959.72;5075000;27;46411;-78
2022/08/19 06:51:19;;;;;;;;;2.25;2.25;;;;;20.19;65.95;100954.94;5056546;28;48328;-80
2022/08/19 06:53:46;;;;;;;;;2.50;2.00;;;;;20.21;65.98;100959.06;5074513;28;45664;-78
2022/08/19 06:56:14;;;;;;;;;2.00;2.00;;;;;20.26;65.84;100955.91;5074656;28;45680;-79
2022/08/19 06:58:40;;;;;;;;;2.75;2.25;;;;;20.27;66.05;100949.59;5074824;28;45742;-82
2022/08/19 07:01:05;;;;;;;;;3.25;3.00;;;;;20.32;65.78;100957.97;5074784;28;46096;-82
2022/08/19 07:03:34;;;;;;;;;3.00;3.00;;;;;20.34;65.88;100962.16;5079624;28;45621;-79
2022/08/19 07:06:17;;;;;;;;;4.00;3.25;;;;;20.36;65.63;100967.28;5045475;28;45715;-82
2022/08/19 07:08:47;;;;;;;;;3.25;3.00;;;;;20.32;65.36;100971.28;5080365;28;45679;-83
2022/08/19 07:11:20;;;;;;;;;2.00;2.00;;;;;20.30;65.83;100967.91;5059145;28;46259;-79
2022/08/19 07:13:48;;;;;;;;;3.75;3.75;;;;;20.28;65.95;100967.25;5079935;28;45789;-80
2022/08/19 07:16:17;;;;;;;;;2.50;2.50;;;;;20.33;65.69;100983.59;5075233;28;45888;-82
2022/08/19 07:18:44;;;;;;;;;3.00;3.00;;;;;20.29;65.97;100977.75;5073980;28;46983;-81
2022/08/19 07:21:17;;;;;;;;;3.00;3.00;;;;;20.28;66.11;100969.91;5053057;28;47554;-77
2022/08/19 07:23:44;;;;;;;;;2.50;2.50;;;;;20.31;65.85;100974.88;5061917;28;45850;-78
2022/08/19 07:26:15;;;;;;;;;3.00;3.00;;;;;20.31;66.11;100972.22;5055684;28;45677;-79
2022/08/19 07:28:42;;;;;;;;;2.00;2.00;;;;;20.33;66.32;100968.47;5062508;28;46440;-82
2022/08/19 07:31:11;;;;;;;;;2.00;2.00;;;;;20.38;66.17;100971.47;5073583;28;46179;-78
2022/08/19 07:33:37;;;;;;;;;1.25;0.75;;;;;20.43;65.94;100973.63;5074556;28;45748;-81
2022/08/19 07:36:11;;;;;;;;;2.50;2.50;;;;;20.48;66.07;100974.81;5060188;28;45724;-82
2022/08/19 07:38:36;;;;;;;;;1.50;1.00;;;;;20.51;65.73;100979.78;5067271;28;45764;-82
2022/08/19 07:41:02;;;;;;;;;2.00;2.00;;;;;20.52;65.80;100970.81;5069754;28;45826;-80
2022/08/19 07:43:28;;;;;;;;;2.75;2.00;;;;;20.55;65.75;100969.66;5073767;28;45671;-80
2022/08/19 07:45:56;;;;;;;;;1.00;1.00;;;;;20.57;66.03;100967.66;5073550;28;45888;-81
2022/08/19 07:48:27;;;;;;;;;1.75;1.75;;;;;20.58;65.90;100966.66;5073717;27;47470;-80
2022/08/19 07:50:54;;;;;;;;;0.00;0.00;;;;;20.59;65.86;100968.31;5073516;28;45989;-80
2022/08/19 07:53:24;;;;;;;;;2.50;2.00;;;;;20.64;65.58;100975.81;5055779;28;45718;-82
2022/08/19 07:55:50;;;;;;;;;0.50;0.50;;;;;20.65;65.72;100965.00;5054652;28;45888;-80
2022/08/19 07:58:20;;;;;;;;;2.50;1.75;;;;;20.67;65.36;100965.69;5073837;28;46582;-79
2022/08/19 08:00:49;;;;;;;;;2.00;1.00;;;;;20.66;65.43;100964.00;5073211;28;46580;-81
2022/08/19 08:03:19;;;;;;;;;1.00;0.75;;;;;20.73;65.58;100964.19;5074470;28;45563;-77
2022/08/19 08:11:03;;;;;;;;;1.75;1.50;;;;;20.89;65.25;100959.66;5073741;28;45972;-81
2022/08/19 08:13:29;;;;;;;;;1.50;1.50;;;;;20.97;64.96;100966.84;5071723;28;46119;-82
2022/08/19 08:15:55;;;;;;;;;4.00;2.75;;;;;21.03;64.93;100960.84;5088124;27;45749;-78
2022/08/19 08:18:21;;;;;;;;;1.50;1.50;;;;;21.12;64.81;100981.13;5078724;28;45629;-74
2022/08/19 08:20:46;;;;;;;;;1.25;1.00;;;;;21.14;64.40;100976.53;5062223;28;48199;-76
2022/08/19 08:23:29;;;;;;;;;0.50;0.50;;;;;21.13;64.43;100982.81;5078379;28;46007;-74
2022/08/19 08:25:57;;;;;;;;;2.00;1.00;;;;;21.13;64.68;100979.31;5076400;28;45857;-77
2022/08/19 08:28:24;;;;;;;;;1.00;1.00;;;;;21.17;64.32;100994.00;5073906;28;46454;-76
2022/08/19 08:30:50;;;;;;;;;1.50;1.50;;;;;21.17;64.53;100983.31;5054418;28;46066;-76
2022/08/19 08:33:22;;;;;;;;;3.00;2.00;;;;;21.16;64.44;100987.81;5071526;28;45913;-78
2022/08/19 08:35:48;;;;;;;;;1.00;1.00;;;;;21.20;64.53;100989.16;5059266;28;45895;-79
2022/08/19 08:38:14;;;;;;;;;3.00;2.00;;;;;21.21;64.62;100982.00;5051915;28;45800;-78
2022/08/19 08:40:48;;;;;;;;;2.00;1.50;;;;;21.29;64.11;100984.66;5066261;28;45779;-80
2022/08/19 08:43:33;;;;;;;;;1.00;1.00;;;;;21.32;64.23;100979.81;5054955;28;45786;-75
2022/08/19 08:46:08;;;;;;;;;2.00;2.00;;;;;21.38;64.23;100991.63;5070921;28;45870;-79
2022/08/19 08:49:11;;;;;;;;;2.25;2.25;;;;;21.47;63.73;100984.47;5076623;27;46612;-76
2022/08/19 08:51:43;;;;;;;;;3.00;2.00;;;;;21.57;63.92;100985.94;5010263;28;46116;-79
2022/08/19 08:54:13;;;;;;;;;2.25;2.00;;;;;21.63;63.59;100993.25;5008943;28;45962;-79
2022/08/19 08:56:42;;;;;;;;;3.00;3.00;;;;;21.71;63.59;100993.22;5010356;28;45869;-79
2022/08/19 08:59:20;;;;;;;;;4.00;2.00;;;;;21.72;62.94;100994.03;5010144;28;46801;-78
2022/08/19 09:01:45;;;;;;;;;1.50;1.50;;;;;21.72;63.41;100984.22;5010605;28;46129;-82
2022/08/19 09:04:12;;;;;;;;;2.00;2.00;;;;;21.76;62.68;100985.53;5009609;28;45943;-80
2022/08/19 09:07:08;;;;;;;;;2.00;2.00;;;;;21.80;62.69;100980.69;5010084;28;45932;-81
2022/08/19 09:09:41;;;;;;;;;1.75;1.50;;;;;21.87;62.64;100986.97;5009988;28;45998;-80
2022/08/19 09:12:13;;;;;;;;;4.75;3.00;;;;;21.89;62.80;100984.16;5009863;28;46113;-77
2022/08/19 09:14:59;;;;;;;;;3.50;3.00;;;;;21.98;62.54;100975.97;5009713;28;45709;-80
2022/08/19 09:17:33;;;;;;;;;3.00;2.00;;;;;22.00;61.97;100971.28;5009886;28;45746;-77
2022/08/19 09:20:13;;;;;;;;;5.25;3.50;;;;;22.10;61.84;100976.41;4994406;28;46826;-79
2022/08/19 09:22:43;;;;;;;;;2.00;2.00;;;;;22.14;62.13;100973.22;5012882;28;46506;-78
2022/08/19 09:25:11;;;;;;;;;5.75;4.50;;;;;22.17;61.74;100972.03;5014241;28;46107;-76
2022/08/19 09:27:39;;;;;;;;;2.00;1.75;;;;;22.25;61.88;100976.50;5023023;28;45979;-78
2022/08/19 09:30:07;;;;;;;;;2.00;2.00;;;;;22.24;61.84;100975.66;5069381;27;46719;-76
2022/08/19 09:32:32;;;;;;;;;2.25;2.25;;;;;22.30;61.36;100979.47;5078594;28;46093;-78
2022/08/19 09:35:00;;;;;;;;;1.50;1.50;;;;;22.35;61.21;100969.91;5071785;28;45628;-78
2022/08/19 09:37:25;;;;;;;;;2.00;2.00;;;;;22.40;61.70;100972.88;5053426;28;45646;-78
2022/08/19 09:39:52;;;;;;;;;3.00;2.00;;;;;22.51;60.45;100977.81;5057965;28;46415;-77
2022/08/19 09:42:17;;;;;;;;;2.75;1.00;;;;;22.54;61.05;100971.31;5075844;28;46321;-75
2022/08/19 09:45:03;;;;;;;;;2.00;2.00;;;;;22.61;60.40;100972.28;5074894;28;45779;-82
2022/08/19 09:47:37;;;;;;;;;2.00;1.50;;;;;22.72;60.17;100976.41;5042930;28;45889;-79
2022/08/19 09:50:07;;;;;;;;;1.00;1.00;;;;;22.78;60.20;100968.47;5073243;28;46636;-79
2022/08/19 09:52:36;;;;;;;;;2.00;1.00;;;;;22.86;59.89;100983.63;5075935;28;46432;-79
2022/08/19 09:55:03;;;;;;;;;2.00;2.00;;;;;22.92;59.77;100980.22;5049850;28;46194;-80
2022/08/19 09:57:28;;;;;;;;;3.00;2.00;;;;;22.95;59.68;100983.38;5076570;28;45682;-77
2022/08/19 09:59:54;;;;;;;;;3.00;2.00;;;;;22.99;59.97;100981.19;5077589;28;46377;-77
2022/08/19 10:02:19;;;;;;;;;5.50;4.00;;;;;23.04;60.03;100981.47;5077228;28;45959;-82
2022/08/19 10:07:29;;;;;;;;;2.00;2.00;;;;;23.23;59.46;100978.25;5067135;28;45701;-79
2022/08/19 10:09:56;;;;;;;;;2.00;2.00;;;;;23.30;59.46;100979.22;5079885;28;46439;-81
2022/08/19 10:12:21;;;;;;;;;2.25;2.00;;;;;23.35;59.49;100975.97;5072144;28;47318;-78
2022/08/19 10:14:47;;;;;;;;;2.00;2.00;;;;;23.42;59.03;100980.44;5079596;28;45769;-78
2022/08/19 10:17:14;;;;;;;;;2.00;1.25;;;;;23.51;58.89;100977.69;5081595;28;45795;-82
2022/08/19 10:19:39;;;;;;;;;1.25;1.00;;;;;23.56;58.48;100969.94;5080487;28;46021;-76
2022/08/19 10:22:06;;;;;;;;;2.00;1.50;;;;;23.64;58.80;100969.84;5081326;28;46347;-78
2022/08/19 10:24:33;;;;;;;;;2.00;2.00;;;;;23.71;58.10;100966.22;5062296;28;45767;-77
2022/08/19 10:26:59;;;;;;;;;1.75;1.00;;;;;23.77;58.29;100967.34;5080937;28;45611;-80
2022/08/19 10:29:27;;;;;;;;;2.75;2.00;;;;;23.85;57.91;100964.56;5073488;28;45743;-77
2022/08/19 10:31:54;;;;;;;;;4.50;4.00;;;;;23.92;57.77;100970.81;5062962;28;46406;-77
2022/08/19 10:34:19;;;;;;;;;4.00;2.75;;;;;23.99;57.30;100966.38;5082425;28;45735;-77
2022/08/19 10:36:45;;;;;;;;;2.00;1.50;;;;;24.05;57.54;100959.47;5069897;28;46104;-76
2022/08/19 10:39:12;;;;;;;;;2.00;2.00;;;;;24.16;57.16;100962.47;5079210;28;46654;-77
2022/08/19 10:41:39;;;;;;;;;1.00;1.00;;;;;24.25;57.05;100964.03;5077858;28;46058;-74
2022/08/19 10:44:10;;;;;;;;;1.00;1.00;;;;;24.34;57.01;100956.75;5059993;28;45663;-77
2022/08/19 10:46:41;;;;;;;;;8.00;8.00;;;;;24.43;56.86;100960.13;5059450;27;45809;-80
2022/08/19 10:49:07;;;;;;;;;2.00;2.00;;;;;24.48;56.80;100953.16;5078499;27;46560;-82
2022/08/19 10:54:17;;;;;;;;;1.00;1.00;;;;;24.57;56.32;100961.91;5077595;28;45784;-81
2022/08/19 10:56:52;;;;;;;;;1.25;1.25;;;;;24.59;55.82;100966.06;5075862;28;45663;-79
2022/08/19 10:59:29;;;;;;;;;4.00;3.00;;;;;24.61;55.79;100956.00;5069524;28;47556;-76
2022/08/19 11:02:09;;;;;;;;;2.00;2.00;;;;;24.64;55.94;100947.56;5069056;28;46043;-79
2022/08/19 11:04:35;;;;;;;;;2.00;1.50;;;;;24.71;55.96;100955.66;5074644;28;45874;-76
2022/08/19 11:07:00;;;;;;;;;2.00;2.00;;;;;24.73;55.76;100944.72;5074348;28;45613;-79
2022/08/19 11:09:29;;;;;;;;;2.50;1.00;;;;;24.77;55.19;100949.53;5074158;28;46617;-77
2022/08/19 11:11:56;;;;;;;;;2.00;2.00;;;;;24.81;55.50;100955.31;5074030;28;47210;-77
2022/08/19 11:14:23;;;;;;;;;2.00;2.00;;;;;24.83;55.44;100946.03;5073658;28;45595;-78
2022/08/19 11:16:55;;;;;;;;;0.75;0.75;;;;;24.89;55.09;100941.81;5034160;28;45857;-79
2022/08/19 11:19:24;;;;;;;;;2.00;1.50;;;;;24.94;55.00;100936.72;5051029;28;45761;-78
2022/08/19 11:21:51;;;;;;;;;2.50;2.25;;;;;25.00;54.95;100943.94;5035561;28;46491;-80
2022/08/19 11:24:23;;;;;;;;;1.00;1.00;;;;;25.04;54.97;100940.72;5035136;28;45610;-79
2022/08/19 11:26:57;;;;;;;;;2.00;1.75;;;;;25.12;54.69;100938.88;5051925;28;45762;-80
2022/08/19 11:29:27;;;;;;;;;1.50;1.50;;;;;25.14;54.62;100929.63;5051549;28;46770;-76
2022/08/19 11:31:54;;;;;;;;;1.00;1.00;;;;;25.11;54.41;100935.38;5034906;28;46031;-78
2022/08/19 11:34:28;;;;;;;;;1.25;1.00;;;;;25.11;54.72;100932.69;5033532;28;45855;-79
2022/08/19 11:36:58;;;;;;;;;1.75;1.00;;;;;25.13;54.71;100933.34;5034932;28;45769;-78
2022/08/19 11:39:26;;;;;;;;;2.75;2.75;;;;;25.05;54.50;100930.78;5051618;28;45753;-77
2022/08/19 11:41:51;;;;;;;;;8.75;4.75;;;;;25.03;54.54;100935.53;5035199;28;48306;-78
2022/08/19 11:44:17;;;;;;;;;1.00;1.00;;;;;24.98;54.30;100933.44;5051384;28;45856;-80
2022/08/19 11:46:46;;;;;;;;;11.00;7.00;;;;;24.96;54.54;100937.31;5053891;27;45693;-78
2022/08/19 11:49:12;;;;;;;;;1.50;1.00;;;;;24.91;54.67;100945.97;5075855;27;46109;-80
2022/08/19 11:51:45;;;;;;;;;0.00;0.00;;;;;24.86;54.82;100942.16;5073840;28;46225;-81
2022/08/19 11:54:19;;;;;;;;;2.00;2.00;;;;;24.82;54.57;100940.91;5049249;28;46202;-82